Historique des mesures à Cassis (13260), France
Quotidien Résumé Juillet 25, 2017 Unités:  Métrique    US   Métrique/US
« Précédent (Jour)
Suivant (Jour) »
Quotidien Hebdomadaire Mensuel Annuel Période au choix
  Maximum: Minimum: Moyenne:
Température: TemperatureC °C 19.9 °C 22.3 °C
Point de rosée: DewpointC °C 10.1 °C 10.7 °C
Humidité: Humidity % 36 % 45 %
Vitesse du vent: 0 km/h 21.6 km/h 38.9 km/h
Rafales: 0 km/h - -
Vent:- - ESE
Pression: PressurehPa hPa 1003.3 hPa -
Précipitations: 0.0 mm    
Historical Graphs
 
 
Mesures pour : Juillet 25, 2017
Heure Temperature Point de rosée Pression Vent Vitesse du vent Rafales Humidité Pluie (par heure) Conditions
TemperatureC °C DewpointC °C PressurehPa hPa Calm     Humidity % HourlyPrecipMM mm SoftwareType W/m2
00:11 22.3 °C 10.4 °C 1006.7 hPa NNE 49.2 km/h 49.2 km/h 47 % 0.0 mm open2300-1.11 W/m2
01:11 21.8 °C 10.6 °C 1006.7 hPa NNE 49.2 km/h 55.7 km/h 49 % 0.0 mm open2300-1.11 W/m2
02:11 21.4 °C 10.8 °C 1005.6 hPa NW 49.7 km/h 59.5 km/h 51 % 0.0 mm open2300-1.11 W/m2
03:11 20.9 °C 10.9 °C 1006.7 hPa North 23.8 km/h 33.2 km/h 53 % 0.0 mm open2300-1.11 W/m2
04:11 20.5 °C 11.1 °C 1006.0 hPa NNE 28.5 km/h 71.8 km/h 55 % 0.0 mm open2300-1.11 W/m2
05:11 20.4 °C 11.3 °C 1006.3 hPa NNW 52 km/h 52 km/h 56 % 0.0 mm open2300-1.11 W/m2
06:11 20.1 °C 11.3 °C 1006.3 hPa NW 27.7 km/h 49.2 km/h 57 % 0.0 mm open2300-1.11 W/m2
07:11 19.9 °C 11.4 °C 1006.7 hPa North 38.8 km/h 38.8 km/h 58 % 0.0 mm open2300-1.11 W/m2
08:11 21.5 °C 11.8 °C 1006.7 hPa NNE 36.5 km/h 59.5 km/h 54 % 0.0 mm open2300-1.11 W/m2
09:11 21.4 °C 11.9 °C 1006.7 hPa North 21.6 km/h 44.1 km/h 55 % 0.0 mm open2300-1.11 W/m2
10:11 22.2 °C 12.1 °C 1006.3 hPa WNW 74.8 km/h 74.8 km/h 53 % 0.0 mm open2300-1.11 W/m2
11:11 23.6 °C 12.6 °C 1006.0 hPa NNW 38.3 km/h 38.3 km/h 50 % 0.0 mm open2300-1.11 W/m2
12:11 24.9 °C 11.8 °C 1005.3 hPa NNE 36.5 km/h 43.5 km/h 44 % 0.0 mm open2300-1.11 W/m2
13:11 25.3 °C 11.8 °C 1005.3 hPa North 40.7 km/h 46.8 km/h 43 % 0.0 mm open2300-1.11 W/m2
14:11 25.6 °C 11.7 °C 1005.0 hPa NE 27.2 km/h 41.2 km/h 42 % 0.0 mm open2300-1.11 W/m2
15:11 26.3 °C 11.7 °C 1004.6 hPa NNE 37.5 km/h 49.2 km/h 40 % 0.0 mm open2300-1.11 W/m2
16:11 26.3 °C 10.4 °C 1004.6 hPa NNW 40.7 km/h 40.7 km/h 37 % 0.0 mm open2300-1.11 W/m2
17:11 26.5 °C 10.1 °C 1003.9 hPa North 46.8 km/h 104.9 km/h 36 % 0.0 mm open2300-1.11 W/m2
18:11 26.1 °C 11.1 °C 1003.9 hPa North 34.8 km/h 44.1 km/h 39 % 0.0 mm open2300-1.11 W/m2
19:11 25.6 °C 10.2 °C 1003.6 hPa West 61.3 km/h 61.3 km/h 38 % 0.0 mm open2300-1.11 W/m2
20:11 25.0 °C 10.8 °C 1003.3 hPa North 27.2 km/h 34.1 km/h 41 % 0.0 mm open2300-1.11 W/m2
21:11 24.1 °C 10.7 °C 1003.6 hPa NNE 45.4 km/h 47.3 km/h 43 % 0.0 mm open2300-1.11 W/m2
22:11 23.3 °C 10.3 °C 1004.3 hPa North 33.6 km/h 45.4 km/h 44 % 0.0 mm open2300-1.11 W/m2
23:11 22.5 °C 10.2 °C 1004.6 hPa NNE 50.5 km/h 50.5 km/h 46 % 0.0 mm open2300-1.11 W/m2
Observations météo à CASSIS
WU-History script by Weather Underground - 1 mb